Time;durP1;ratioP1;P1;durP2;ratioP2;P2;SDS_P1;SDS_P2;PMS_P1;PMS_P2;Temp;Humidity;BMP_temperature;BMP_pressure;BME280_temperature;BME280_humidity;BME280_pressure;Samples;Min_cycle;Max_cycle;Signal;HPM_P1;HPM_P2
2021/05/01 00:02:09;;;;;;;20.93;12.80;;;10.10;99.90;;;;;;5109128;27;20166;-81
2021/05/01 00:04:36;;;;;;;19.83;14.20;;;10.10;99.90;;;;;;5108699;27;20162;-81
2021/05/01 00:07:02;;;;;;;20.43;13.93;;;10.10;99.90;;;;;;5125956;27;20481;-80
2021/05/01 00:09:29;;;;;;;15.73;12.97;;;10.00;99.90;;;;;;5144890;27;20743;-81
2021/05/01 00:11:55;;;;;;;18.23;13.57;;;9.80;99.90;;;;;;5144722;27;20442;-81
2021/05/01 00:14:25;;;;;;;16.50;12.90;;;10.00;99.90;;;;;;5144454;27;20395;-80
2021/05/01 00:16:50;;;;;;;17.67;12.90;;;9.80;99.90;;;;;;5109352;27;20150;-81
2021/05/01 00:19:16;;;;;;;15.20;11.40;;;9.70;99.90;;;;;;5109902;27;20394;-81
2021/05/01 00:21:42;;;;;;;16.77;13.57;;;9.90;99.90;;;;;;5144155;27;20165;-81
2021/05/01 00:24:08;;;;;;;19.80;11.73;;;10.00;99.90;;;;;;5126519;27;20214;-81
2021/05/01 00:26:34;;;;;;;16.70;13.97;;;9.70;99.90;;;;;;5126391;27;20165;-81
2021/05/01 00:28:59;;;;;;;18.03;14.17;;;9.60;99.90;;;;;;5126388;27;20394;-81
2021/05/01 00:31:27;;;;;;;17.20;13.60;;;9.70;99.90;;;;;;5144248;27;20220;-80
2021/05/01 00:33:53;;;;;;;21.20;13.87;;;9.70;99.90;;;;;;5126791;27;20240;-81
2021/05/01 00:36:19;;;;;;;16.10;12.40;;;9.50;99.90;;;;;;5109967;27;20452;-81
2021/05/01 00:38:44;;;;;;;18.83;11.70;;;9.70;99.90;;;;;;5126420;27;20225;-81
2021/05/01 00:41:11;;;;;;;19.40;13.90;;;9.70;99.90;;;;;;5145401;27;20191;-81
2021/05/01 00:43:41;;;;;;;23.57;14.93;;;9.90;99.90;;;;;;5127651;27;20260;-81
2021/05/01 00:46:08;;;;;;;21.07;14.83;;;9.90;99.90;;;;;;5129563;27;20399;-81
2021/05/01 00:48:35;;;;;;;19.17;14.57;;;9.90;99.90;;;;;;5127147;27;20412;-81
2021/05/01 00:51:01;;;;;;;21.60;15.07;;;10.00;99.90;;;;;;5126596;27;20439;-81
2021/05/01 00:53:28;;;;;;;18.23;13.30;;;10.10;99.90;;;;;;5144407;27;20590;-81
2021/05/01 00:55:54;;;;;;;24.17;16.00;;;10.10;99.90;;;;;;5092345;27;20713;-81
2021/05/01 00:58:21;;;;;;;22.07;15.50;;;10.10;99.90;;;;;;5126472;27;20740;-81
2021/05/01 01:03:25;;;;;;;16.40;12.93;;;10.10;99.90;;;;;;5131541;27;20383;-79
2021/05/01 01:05:52;;;;;;;19.67;15.80;;;10.10;99.90;;;;;;5130451;27;20407;-79
2021/05/01 01:08:18;;;;;;;24.13;15.47;;;10.10;99.90;;;;;;5150207;27;20197;-79
2021/05/01 01:10:44;;;;;;;17.00;14.40;;;10.00;99.90;;;;;;5150425;27;20442;-80
2021/05/01 01:13:10;;;;;;;25.37;16.23;;;9.90;99.90;;;;;;5130279;27;20153;-79
2021/05/01 01:15:36;;;;;;;21.53;16.87;;;9.50;99.90;;;;;;5131035;27;20493;-78
2021/05/01 01:18:03;;;;;;;24.90;18.13;;;9.40;99.90;;;;;;5114482;27;20439;-78
2021/05/01 01:20:29;;;;;;;21.53;15.50;;;9.20;99.90;;;;;;5111810;27;20391;-79
2021/05/01 01:22:54;;;;;;;23.07;17.33;;;9.10;99.90;;;;;;5124817;27;20891;-81
2021/05/01 01:25:21;;;;;;;25.43;18.70;;;9.30;99.90;;;;;;5125233;27;20395;-80
2021/05/01 01:27:48;;;;;;;20.57;15.70;;;9.50;99.90;;;;;;5124978;27;20172;-80
2021/05/01 01:30:16;;;;;;;19.70;16.43;;;9.70;99.90;;;;;;5109653;27;20435;-80
2021/05/01 01:32:43;;;;;;;23.00;17.20;;;9.80;99.90;;;;;;5145359;27;20387;-81
2021/05/01 01:35:11;;;;;;;19.00;13.70;;;9.90;99.90;;;;;;5125463;27;20414;-81
2021/05/01 01:37:40;;;;;;;20.77;15.00;;;9.80;99.90;;;;;;5126352;27;20390;-81
2021/05/01 01:40:06;;;;;;;18.80;14.67;;;9.90;99.90;;;;;;5107607;28;20399;-81
2021/05/01 01:42:32;;;;;;;15.67;12.10;;;9.80;99.90;;;;;;5107820;28;20455;-80
2021/05/01 01:44:58;;;;;;;24.80;16.07;;;9.80;99.90;;;;;;5125529;28;20392;-80
2021/05/01 01:47:24;;;;;;;15.00;13.40;;;9.90;99.90;;;;;;5124593;27;20250;-80
2021/05/01 01:49:49;;;;;;;20.03;15.47;;;9.90;99.90;;;;;;5143026;27;20395;-81
2021/05/01 01:52:15;;;;;;;19.47;15.07;;;9.80;99.90;;;;;;5124203;27;20153;-81
2021/05/01 01:54:41;;;;;;;21.10;14.93;;;9.80;99.90;;;;;;5125180;28;20164;-81
2021/05/01 01:57:07;;;;;;;22.60;14.97;;;9.80;99.90;;;;;;5124847;28;20233;-81
2021/05/01 01:59:33;;;;;;;16.10;12.90;;;9.00;99.90;;;;;;5123733;28;20184;-81
2021/05/01 02:01:59;;;;;;;20.13;14.23;;;9.20;99.90;;;;;;5142239;28;20475;-81
2021/05/01 02:04:25;;;;;;;19.40;13.87;;;9.10;99.90;;;;;;5124271;28;20391;-81
2021/05/01 02:06:51;;;;;;;19.70;14.20;;;8.80;99.90;;;;;;5124007;28;20383;-81
2021/05/01 02:09:17;;;;;;;21.03;15.43;;;8.90;99.90;;;;;;5143039;28;20246;-81
2021/05/01 02:11:43;;;;;;;18.10;15.03;;;9.10;99.90;;;;;;5107506;28;20427;-81
2021/05/01 02:14:09;;;;;;;21.77;14.00;;;8.70;99.90;;;;;;5105963;28;20241;-81
2021/05/01 02:16:35;;;;;;;21.07;13.70;;;8.80;99.90;;;;;;5143728;27;20392;-80
2021/05/01 02:19:02;;;;;;;22.00;16.40;;;8.50;99.90;;;;;;5146568;27;20394;-81
2021/05/01 02:21:28;;;;;;;20.93;15.43;;;8.40;99.90;;;;;;5146275;27;20389;-81
2021/05/01 02:23:55;;;;;;;19.37;14.53;;;8.50;99.90;;;;;;5146132;27;20481;-80
2021/05/01 02:26:20;;;;;;;21.27;13.93;;;8.40;99.90;;;;;;5128038;27;20401;-81
2021/05/01 02:28:46;;;;;;;20.20;15.60;;;8.30;99.90;;;;;;5146079;27;20486;-80
2021/05/01 02:31:12;;;;;;;24.13;16.50;;;8.60;99.90;;;;;;5146189;27;20189;-81
2021/05/01 02:33:38;;;;;;;18.73;15.90;;;8.70;99.90;;;;;;5128784;27;20261;-80
2021/05/01 02:36:04;;;;;;;25.07;17.07;;;8.70;99.90;;;;;;5154279;27;20231;-79
2021/05/01 02:38:30;;;;;;;21.03;15.70;;;8.50;99.90;;;;;;5122442;27;20153;-80
2021/05/01 02:40:56;;;;;;;23.23;17.07;;;8.40;99.90;;;;;;5140572;27;20406;-78
2021/05/01 02:43:22;;;;;;;20.10;15.53;;;8.60;99.90;;;;;;5129323;27;20458;-81
2021/05/01 02:45:48;;;;;;;25.10;16.57;;;8.80;99.90;;;;;;5128373;27;20184;-81
2021/05/01 02:48:14;;;;;;;23.53;14.60;;;8.70;99.90;;;;;;5146325;27;20594;-81
2021/05/01 02:50:40;;;;;;;17.80;14.73;;;8.40;99.90;;;;;;5146433;27;20530;-81
2021/05/01 02:53:06;;;;;;;25.67;15.83;;;8.40;99.90;;;;;;5127865;27;20555;-81
2021/05/01 02:55:33;;;;;;;24.37;17.37;;;8.20;99.90;;;;;;5146484;27;20391;-81
2021/05/01 02:57:59;;;;;;;22.57;15.07;;;8.40;99.90;;;;;;5127615;27;20157;-81
2021/05/01 03:00:27;;;;;;;29.30;17.30;;;8.60;99.90;;;;;;5127246;27;20398;-80
2021/05/01 03:02:53;;;;;;;27.73;16.17;;;8.70;99.90;;;;;;5127251;27;20173;-80
2021/05/01 03:05:21;;;;;;;22.13;17.20;;;8.90;99.90;;;;;;5145974;27;20395;-80
2021/05/01 03:07:47;;;;;;;25.30;15.33;;;9.00;99.90;;;;;;5127194;27;20456;-81
2021/05/01 03:10:16;;;;;;;22.83;15.60;;;9.00;99.90;;;;;;5145659;27;20443;-80
2021/05/01 03:12:42;;;;;;;21.30;16.23;;;9.10;99.90;;;;;;5147586;27;20168;-78
2021/05/01 03:15:09;;;;;;;23.57;18.00;;;9.10;99.90;;;;;;5127343;27;20395;-80
2021/05/01 03:17:35;;;;;;;21.80;16.60;;;9.10;99.90;;;;;;5145687;27;20387;-81
2021/05/01 03:20:04;;;;;;;25.50;17.03;;;9.10;99.90;;;;;;5145182;27;20399;-80
2021/05/01 03:22:30;;;;;;;20.70;17.83;;;9.20;99.90;;;;;;5146170;27;20452;-81
2021/05/01 03:24:56;;;;;;;23.57;17.10;;;9.00;99.90;;;;;;5145269;27;20394;-81
2021/05/01 03:27:22;;;;;;;27.63;16.73;;;8.70;99.90;;;;;;5145780;27;20395;-81
2021/05/01 03:29:48;;;;;;;20.70;13.47;;;8.40;99.90;;;;;;5126815;27;20627;-81
2021/05/01 03:32:14;;;;;;;23.27;15.50;;;8.40;99.90;;;;;;5145567;27;20875;-81
2021/05/01 03:34:40;;;;;;;21.47;14.47;;;8.30;99.90;;;;;;5127531;27;20427;-81
2021/05/01 03:37:06;;;;;;;24.70;16.07;;;8.40;99.90;;;;;;5126941;27;20420;-81
2021/05/01 03:39:35;;;;;;;19.97;14.30;;;8.40;99.90;;;;;;5127581;27;20160;-81
2021/05/01 03:42:01;;;;;;;25.93;15.97;;;8.40;99.90;;;;;;5145718;27;20399;-81
2021/05/01 03:44:28;;;;;;;19.73;14.83;;;8.40;99.90;;;;;;5144719;27;20288;-81
2021/05/01 03:46:55;;;;;;;26.43;17.27;;;8.30;99.90;;;;;;5125414;27;20424;-81
2021/05/01 03:49:21;;;;;;;25.73;17.07;;;8.20;99.90;;;;;;5126122;27;20403;-81
2021/05/01 03:51:47;;;;;;;24.00;16.20;;;8.30;99.90;;;;;;5105486;28;20450;-81
2021/05/01 03:54:12;;;;;;;23.83;16.20;;;8.30;99.90;;;;;;5144277;27;20161;-81
2021/05/01 03:56:38;;;;;;;31.83;19.30;;;8.30;99.90;;;;;;5126789;27;20154;-81
2021/05/01 03:59:04;;;;;;;25.87;14.70;;;8.40;99.90;;;;;;5126819;27;20218;-81
2021/05/01 04:01:30;;;;;;;21.30;15.10;;;8.30;99.90;;;;;;5126807;27;20166;-81
2021/05/01 04:03:56;;;;;;;20.90;14.77;;;8.40;99.90;;;;;;5128085;27;20394;-81
2021/05/01 04:06:22;;;;;;;24.27;18.87;;;8.40;99.90;;;;;;5128137;27;20162;-81
2021/05/01 04:08:48;;;;;;;26.20;18.53;;;8.20;99.90;;;;;;5127882;27;20499;-81
2021/05/01 04:11:14;;;;;;;20.13;16.10;;;8.20;99.90;;;;;;5146652;27;20196;-81
2021/05/01 04:13:46;;;;;;;25.67;17.20;;;8.00;99.90;;;;;;5132098;27;20153;-78
2021/05/01 04:16:14;;;;;;;25.30;16.80;;;7.80;99.90;;;;;;5118463;27;20150;-78
2021/05/01 04:18:40;;;;;;;30.63;18.80;;;8.00;99.90;;;;;;5152718;27;20383;-78
2021/05/01 04:21:06;;;;;;;27.30;18.80;;;7.90;99.90;;;;;;5134128;27;20394;-79
2021/05/01 04:23:33;;;;;;;25.30;17.30;;;7.90;99.90;;;;;;5146614;27;20399;-81
2021/05/01 04:25:59;;;;;;;25.30;15.67;;;7.70;99.90;;;;;;5127242;27;20391;-81
2021/05/01 04:28:24;;;;;;;31.03;17.73;;;7.70;99.90;;;;;;5126541;27;20397;-81
2021/05/01 04:30:50;;;;;;;28.07;18.30;;;7.50;99.90;;;;;;5144353;27;21005;-81
2021/05/01 04:33:16;;;;;;;21.77;15.83;;;7.40;99.90;;;;;;5125745;27;20172;-81
2021/05/01 04:35:42;;;;;;;23.90;18.03;;;7.30;99.90;;;;;;5105637;28;20495;-81
2021/05/01 04:38:08;;;;;;;24.90;15.47;;;7.20;99.90;;;;;;5141998;27;20153;-81
2021/05/01 04:40:34;;;;;;;25.33;16.50;;;7.30;99.90;;;;;;5144679;27;20499;-81
2021/05/01 04:43:02;;;;;;;19.10;15.00;;;7.40;99.90;;;;;;5125663;27;20221;-80
2021/05/01 04:45:28;;;;;;;38.10;16.57;;;7.30;99.90;;;;;;5125643;27;20193;-81
2021/05/01 04:47:54;;;;;;;45.57;17.10;;;7.20;99.90;;;;;;5125757;27;20387;-81
2021/05/01 04:50:21;;;;;;;28.90;15.20;;;7.10;99.90;;;;;;5144310;27;20434;-81
2021/05/01 04:52:47;;;;;;;36.50;14.93;;;7.00;99.90;;;;;;5144297;27;20453;-80
2021/05/01 04:55:13;;;;;;;28.27;17.70;;;7.10;99.90;;;;;;5148297;27;20460;-79
2021/05/01 04:57:42;;;;;;;25.53;17.13;;;7.30;99.90;;;;;;5150096;27;20394;-80
2021/05/01 05:00:09;;;;;;;25.07;15.27;;;7.50;99.90;;;;;;5150826;27;20456;-79
2021/05/01 05:02:35;;;;;;;26.80;17.10;;;7.50;99.90;;;;;;5150400;27;20482;-78
2021/05/01 05:05:01;;;;;;;20.03;13.70;;;7.40;99.90;;;;;;5150679;27;20739;-79
2021/05/01 05:07:27;;;;;;;31.13;17.80;;;7.60;99.90;;;;;;5150437;27;20354;-78
2021/05/01 05:09:52;;;;;;;22.60;15.43;;;7.60;99.90;;;;;;5146587;27;20387;-81
2021/05/01 05:12:18;;;;;;;26.20;18.03;;;7.50;99.90;;;;;;5143559;27;20157;-81
2021/05/01 05:14:44;;;;;;;30.00;17.13;;;7.60;99.90;;;;;;5143020;27;20180;-80
2021/05/01 05:17:10;;;;;;;18.03;13.50;;;7.40;99.90;;;;;;5124909;27;20160;-81
2021/05/01 05:19:35;;;;;;;25.03;16.73;;;7.40;99.90;;;;;;5143039;27;20154;-81
2021/05/01 05:22:01;;;;;;;23.47;16.27;;;7.70;99.90;;;;;;5062789;28;20190;-81
2021/05/01 05:24:27;;;;;;;22.00;15.63;;;8.00;99.90;;;;;;5062782;28;20179;-80
2021/05/01 05:26:53;;;;;;;23.67;16.77;;;8.20;99.90;;;;;;5079978;28;20183;-80
2021/05/01 05:29:19;;;;;;;29.67;18.37;;;8.20;99.90;;;;;;5079567;28;20321;-81
2021/05/01 05:31:45;;;;;;;27.20;18.10;;;8.20;99.90;;;;;;5079287;28;20456;-81
2021/05/01 05:34:11;;;;;;;21.70;16.60;;;8.30;99.90;;;;;;5046453;28;20181;-81
2021/05/01 05:36:37;;;;;;;27.77;18.90;;;8.50;99.90;;;;;;5079395;28;20182;-80
2021/05/01 05:39:03;;;;;;;29.93;19.67;;;8.50;99.90;;;;;;5063079;28;20172;-80
2021/05/01 05:41:31;;;;;;;27.47;19.30;;;8.80;99.90;;;;;;5045891;28;20256;-80
2021/05/01 05:43:57;;;;;;;24.17;18.00;;;9.10;99.90;;;;;;5080265;28;20507;-80
2021/05/01 05:46:23;;;;;;;26.20;19.27;;;9.00;99.90;;;;;;5081342;28;20412;-81
2021/05/01 05:48:48;;;;;;;25.07;18.40;;;8.90;99.90;;;;;;5080121;28;20417;-79
2021/05/01 05:51:14;;;;;;;25.03;17.50;;;8.90;99.90;;;;;;5091401;28;20195;-79
2021/05/01 05:53:40;;;;;;;28.20;20.50;;;8.90;99.90;;;;;;5135636;27;20177;-81
2021/05/01 05:56:07;;;;;;;27.60;19.10;;;8.60;99.90;;;;;;5124137;28;20157;-81
2021/05/01 05:58:34;;;;;;;26.60;19.50;;;8.50;99.90;;;;;;5142094;28;20158;-81
2021/05/01 06:01:00;;;;;;;29.33;19.50;;;8.70;99.90;;;;;;5142932;28;20817;-81
2021/05/01 06:03:27;;;;;;;35.50;19.97;;;8.80;99.90;;;;;;5123853;28;20399;-81
2021/05/01 06:05:59;;;;;;;29.20;19.60;;;9.00;99.90;;;;;;5107309;28;20440;-81
2021/05/01 06:08:30;;;;;;;31.60;20.83;;;8.90;99.90;;;;;;5124586;28;20427;-81
2021/05/01 06:10:57;;;;;;;22.50;16.87;;;8.70;99.90;;;;;;5124203;28;20526;-81
2021/05/01 06:13:27;;;;;;;30.20;19.70;;;9.00;99.90;;;;;;5142922;28;20388;-81
2021/05/01 06:15:57;;;;;;;31.53;21.00;;;8.80;99.90;;;;;;5108577;28;20391;-81
2021/05/01 06:18:24;;;;;;;30.20;20.30;;;9.00;99.90;;;;;;5124415;28;20402;-81
2021/05/01 06:20:50;;;;;;;26.10;19.07;;;8.90;99.90;;;;;;5124432;28;20417;-81
2021/05/01 06:23:18;;;;;;;24.03;17.90;;;8.90;99.90;;;;;;5142744;28;20395;-81
2021/05/01 06:25:45;;;;;;;26.10;19.60;;;9.00;99.90;;;;;;5124103;28;20161;-81
2021/05/01 06:28:11;;;;;;;29.03;19.23;;;8.80;99.90;;;;;;5124433;28;20395;-80
2021/05/01 06:30:39;;;;;;;23.93;18.77;;;8.80;99.90;;;;;;5142483;28;20790;-81
2021/05/01 06:33:08;;;;;;;32.00;19.67;;;9.00;99.90;;;;;;5125727;28;20401;-81
2021/05/01 06:35:36;;;;;;;29.27;20.33;;;8.80;99.90;;;;;;5124137;28;20387;-81
2021/05/01 06:38:02;;;;;;;27.53;19.70;;;9.00;99.90;;;;;;5142484;28;20483;-81
2021/05/01 06:40:33;;;;;;;26.27;20.63;;;9.30;99.90;;;;;;5107687;28;20944;-81
2021/05/01 06:43:04;;;;;;;26.40;18.40;;;9.40;99.90;;;;;;5142559;28;20458;-80
2021/05/01 06:45:34;;;;;;;32.77;19.57;;;9.20;99.90;;;;;;5125052;28;20471;-81
2021/05/01 06:48:02;;;;;;;27.90;19.27;;;9.30;99.90;;;;;;5106900;28;20391;-80
2021/05/01 06:50:29;;;;;;;30.70;22.47;;;9.80;99.90;;;;;;5106609;28;20446;-81
2021/05/01 06:52:57;;;;;;;27.07;19.77;;;10.20;99.90;;;;;;5142310;28;20431;-81
2021/05/01 06:55:27;;;;;;;27.70;18.30;;;10.20;99.90;;;;;;5107504;28;20902;-81
2021/05/01 06:57:55;;;;;;;29.23;19.70;;;9.90;99.90;;;;;;5107396;28;20391;-81
2021/05/01 07:00:24;;;;;;;26.83;19.57;;;9.90;99.90;;;;;;5124202;28;20886;-81
2021/05/01 07:03:07;;;;;;;22.20;18.77;;;9.60;99.90;;;;;;5124953;28;20391;-81
2021/05/01 07:05:34;;;;;;;23.73;16.50;;;9.80;99.90;;;;;;5130084;27;20391;-81
2021/05/01 07:08:00;;;;;;;24.40;18.33;;;9.60;99.90;;;;;;5146421;27;20426;-81
2021/05/01 07:10:26;;;;;;;27.27;17.53;;;10.10;99.90;;;;;;5146614;27;20899;-81
2021/05/01 07:12:52;;;;;;;25.93;18.10;;;10.20;99.90;;;;;;5130520;27;20154;-81
2021/05/01 07:15:19;;;;;;;22.23;19.00;;;10.20;99.90;;;;;;5133560;27;20447;-81
2021/05/01 07:17:49;;;;;;;24.17;18.63;;;10.40;99.90;;;;;;5128410;27;20179;-82
2021/05/01 07:20:15;;;;;;;27.53;19.57;;;10.50;99.90;;;;;;5146842;27;20406;-82
2021/05/01 07:22:42;;;;;;;29.90;18.30;;;10.00;99.90;;;;;;5128304;27;20735;-81
2021/05/01 07:25:10;;;;;;;27.53;19.70;;;10.00;99.90;;;;;;5148581;27;20402;-81
2021/05/01 07:27:55;;;;;;;31.37;20.60;;;9.80;99.90;;;;;;5114754;27;20399;-81
2021/05/01 07:30:24;;;;;;;31.27;20.97;;;9.90;99.90;;;;;;5148033;27;20777;-81
2021/05/01 07:32:53;;;;;;;30.60;20.97;;;10.20;99.90;;;;;;5146619;27;20423;-81
2021/05/01 07:35:23;;;;;;;24.10;18.07;;;10.50;99.90;;;;;;5146787;27;20456;-81
2021/05/01 07:37:51;;;;;;;29.43;19.67;;;10.10;99.90;;;;;;5146592;27;20490;-81
2021/05/01 07:40:24;;;;;;;26.73;20.67;;;10.40;99.90;;;;;;5128373;27;20458;-81
2021/05/01 07:42:51;;;;;;;30.13;20.73;;;10.50;99.90;;;;;;5127858;27;20542;-81
2021/05/01 07:45:22;;;;;;;27.93;20.97;;;10.10;99.90;;;;;;5094102;27;20391;-81
2021/05/01 07:47:51;;;;;;;30.40;20.87;;;10.10;99.90;;;;;;5112961;27;20548;-81
2021/05/01 07:50:18;;;;;;;29.40;21.13;;;10.10;99.90;;;;;;5146943;27;20443;-81
2021/05/01 07:52:45;;;;;;;29.93;19.70;;;10.00;99.90;;;;;;5128400;27;20391;-81
2021/05/01 07:55:12;;;;;;;35.43;23.20;;;10.30;99.90;;;;;;5128291;27;20397;-81
2021/05/01 07:57:38;;;;;;;29.17;20.50;;;10.80;99.90;;;;;;5129454;27;20391;-81
2021/05/01 08:00:06;;;;;;;23.67;18.67;;;10.50;99.90;;;;;;5128783;27;20402;-80
2021/05/01 08:02:35;;;;;;;26.33;17.27;;;10.40;99.90;;;;;;5112331;27;20182;-81
2021/05/01 08:05:02;;;;;;;28.83;18.90;;;10.90;99.90;;;;;;5147550;27;20480;-81
2021/05/01 08:07:28;;;;;;;28.93;19.33;;;11.00;99.90;;;;;;5147517;27;20479;-81
2021/05/01 08:09:54;;;;;;;27.27;19.73;;;11.50;99.90;;;;;;5128717;27;20399;-81
2021/05/01 08:12:20;;;;;;;18.90;15.03;;;11.80;99.90;;;;;;5100152;28;20189;-81
2021/05/01 08:14:46;;;;;;;23.70;16.97;;;11.60;99.90;;;;;;5141967;27;20391;-81
2021/05/01 08:17:12;;;;;;;23.90;17.87;;;11.50;99.90;;;;;;5111687;27;20195;-81
2021/05/01 08:19:38;;;;;;;19.97;16.10;;;11.40;99.90;;;;;;5111504;27;20153;-81
2021/05/01 08:22:03;;;;;;;22.47;16.97;;;11.50;99.90;;;;;;5146369;27;20427;-81
2021/05/01 08:24:29;;;;;;;29.27;19.33;;;11.30;99.90;;;;;;5128170;27;20164;-81
2021/05/01 08:26:55;;;;;;;21.30;16.23;;;11.60;99.90;;;;;;5127700;27;20229;-81
2021/05/01 08:29:21;;;;;;;22.93;15.10;;;12.10;99.90;;;;;;5146709;27;20514;-81
2021/05/01 08:31:47;;;;;;;20.17;14.93;;;12.00;99.90;;;;;;5110932;27;20189;-81
2021/05/01 08:34:12;;;;;;;21.20;15.37;;;12.10;99.90;;;;;;5111254;27;20161;-81
2021/05/01 08:36:38;;;;;;;24.10;15.60;;;11.60;99.90;;;;;;5128200;27;20161;-81
2021/05/01 08:39:04;;;;;;;17.77;13.37;;;11.70;99.90;;;;;;5128080;27;20165;-81
2021/05/01 08:41:30;;;;;;;21.47;17.10;;;12.10;99.90;;;;;;5146780;27;20161;-81
2021/05/01 08:44:07;;;;;;;19.40;15.87;;;12.10;99.90;;;;;;5127615;27;20507;-81
2021/05/01 08:46:33;;;;;;;21.37;14.43;;;12.40;99.90;;;;;;5128424;27;20161;-81
2021/05/01 08:48:59;;;;;;;20.93;14.83;;;12.40;99.90;;;;;;5128450;27;20433;-81
2021/05/01 08:51:25;;;;;;;19.33;15.37;;;12.50;99.90;;;;;;5112096;27;20491;-81
2021/05/01 08:53:52;;;;;;;23.10;15.30;;;12.90;99.90;;;;;;5146680;27;20181;-81
2021/05/01 08:56:18;;;;;;;20.23;15.57;;;12.70;99.90;;;;;;5128681;27;20459;-81
2021/05/01 08:58:44;;;;;;;23.87;16.03;;;12.50;99.90;;;;;;5147102;27;20399;-81
2021/05/01 09:01:13;;;;;;;17.87;14.60;;;12.00;99.90;;;;;;5152865;27;20396;-79
2021/05/01 09:03:40;;;;;;;16.20;13.60;;;12.10;99.90;;;;;;5134606;27;20168;-82
2021/05/01 09:06:08;;;;;;;19.03;13.80;;;12.50;99.90;;;;;;5128654;27;20395;-81
2021/05/01 09:08:40;;;;;;;19.40;14.93;;;13.30;99.90;;;;;;5146750;27;20506;-81
2021/05/01 09:11:06;;;;;;;20.07;14.07;;;13.30;99.90;;;;;;5147123;27;20435;-80
2021/05/01 09:13:33;;;;;;;17.17;14.30;;;12.70;99.90;;;;;;5129652;27;20399;-80
2021/05/01 09:16:04;;;;;;;19.10;14.30;;;12.70;99.90;;;;;;5147809;27;20417;-81
2021/05/01 09:18:58;;;;;;;14.80;12.00;;;12.90;99.90;;;;;;5148777;27;20402;-81
2021/05/01 09:21:29;;;;;;;18.33;14.37;;;12.60;99.90;;;;;;5115880;27;20473;-80
2021/05/01 09:24:03;;;;;;;17.33;14.40;;;12.80;99.90;;;;;;5112401;27;20391;-80
2021/05/01 09:26:36;;;;;;;14.90;13.27;;;12.70;99.90;;;;;;5108895;28;20491;-81
2021/05/01 09:29:02;;;;;;;14.47;12.27;;;13.00;99.90;;;;;;5145683;27;20402;-82
2021/05/01 09:31:48;;;;;;;15.97;13.27;;;13.70;99.90;;;;;;5129226;27;20438;-82
2021/05/01 09:34:14;;;;;;;16.27;13.03;;;14.10;99.90;;;;;;5129271;27;20409;-82
2021/05/01 09:36:40;;;;;;;17.60;13.07;;;14.60;99.90;;;;;;5146996;27;20716;-81
2021/05/01 09:39:10;;;;;;;16.83;14.00;;;15.00;99.90;;;;;;5127725;27;20394;-82
2021/05/01 09:41:39;;;;;;;17.40;13.00;;;15.20;99.90;;;;;;5145982;27;20395;-81
2021/05/01 09:44:09;;;;;;;16.87;14.00;;;15.40;99.90;;;;;;5127676;27;20454;-83
2021/05/01 09:46:50;;;;;;;15.57;13.90;;;15.30;99.90;;;;;;5128220;27;20406;-81
2021/05/01 09:49:22;;;;;;;15.17;12.30;;;14.40;99.90;;;;;;5093969;27;20403;-82
2021/05/01 09:51:58;;;;;;;18.80;14.13;;;14.50;99.90;;;;;;5084171;28;20494;-82
2021/05/01 09:54:28;;;;;;;14.70;12.67;;;14.60;99.90;;;;;;5066660;28;20405;-81
2021/05/01 09:56:57;;;;;;;13.97;12.27;;;14.70;99.90;;;;;;5067451;28;20508;-82
2021/05/01 09:59:35;;;;;;;14.87;12.03;;;14.60;99.90;;;;;;5046802;28;20407;-82
2021/05/01 10:02:02;;;;;;;13.67;11.70;;;14.30;99.90;;;;;;5046669;28;20438;-81
2021/05/01 10:04:28;;;;;;;13.40;9.93;;;14.30;99.90;;;;;;5046074;28;20529;-81
2021/05/01 10:06:58;;;;;;;16.30;11.03;;;14.20;99.90;;;;;;5062672;28;20610;-82
2021/05/01 10:09:26;;;;;;;11.70;10.47;;;14.40;99.90;;;;;;5074859;28;20425;-81
2021/05/01 10:12:01;;;;;;;12.93;10.23;;;14.20;99.90;;;;;;5065340;28;20481;-82
2021/05/01 10:14:36;;;;;;;18.87;13.03;;;13.70;99.90;;;;;;5065707;28;20413;-81
2021/05/01 10:17:03;;;;;;;13.93;12.43;;;13.70;99.90;;;;;;5081774;28;20890;-82
2021/05/01 10:19:48;;;;;;;11.17;10.07;;;13.90;99.90;;;;;;5065235;28;20437;-80
2021/05/01 10:22:32;;;;;;;14.93;11.30;;;13.90;99.90;;;;;;5084375;28;20459;-82
2021/05/01 10:25:02;;;;;;;17.13;11.93;;;13.50;99.90;;;;;;5102223;28;20425;-82
2021/05/01 10:27:28;;;;;;;12.60;11.30;;;13.20;99.90;;;;;;5101538;28;20393;-81
2021/05/01 10:30:08;;;;;;;13.47;10.47;;;13.80;99.90;;;;;;5099228;28;20402;-81
2021/05/01 10:32:52;;;;;;;14.33;11.60;;;14.00;99.90;;;;;;5144542;28;20398;-82
2021/05/01 10:35:19;;;;;;;18.13;14.20;;;13.80;99.90;;;;;;5144961;28;20462;-81
2021/05/01 10:37:53;;;;;;;14.50;11.80;;;14.00;99.90;;;;;;5130529;27;20447;-80
2021/05/01 10:40:19;;;;;;;19.27;12.97;;;13.70;99.90;;;;;;5151158;27;20395;-81
2021/05/01 10:42:45;;;;;;;14.70;11.60;;;13.50;99.90;;;;;;5148498;27;20450;-81
2021/05/01 10:45:11;;;;;;;12.30;10.23;;;13.80;99.90;;;;;;5148392;27;20176;-81
2021/05/01 10:47:37;;;;;;;11.10;9.93;;;14.00;99.90;;;;;;5130180;27;20164;-81
2021/05/01 10:50:22;;;;;;;12.33;9.70;;;13.50;99.90;;;;;;5148942;27;20395;-81
2021/05/01 10:52:49;;;;;;;12.17;10.90;;;14.00;99.90;;;;;;5130449;27;20158;-81
2021/05/01 10:55:15;;;;;;;15.30;12.80;;;14.30;99.90;;;;;;5148018;27;20397;-81
2021/05/01 10:57:41;;;;;;;14.37;11.60;;;14.40;99.90;;;;;;5129378;27;20458;-81
2021/05/01 11:00:11;;;;;;;15.00;11.63;;;14.50;99.90;;;;;;5130102;27;20383;-81
2021/05/01 11:02:39;;;;;;;18.00;11.77;;;14.60;99.90;;;;;;5092700;28;20388;-81
2021/05/01 11:05:09;;;;;;;12.10;10.90;;;14.70;99.90;;;;;;5146572;27;20383;-80
2021/05/01 11:07:56;;;;;;;11.63;10.47;;;14.70;99.90;;;;;;5148447;27;20434;-81
2021/05/01 11:10:24;;;;;;;14.70;10.70;;;14.90;99.90;;;;;;5131632;27;20574;-81
2021/05/01 11:12:52;;;;;;;12.13;10.93;;;14.90;99.90;;;;;;5147916;27;20390;-81
2021/05/01 11:15:21;;;;;;;13.73;10.80;;;15.20;99.90;;;;;;5148088;27;20398;-81
2021/05/01 11:17:55;;;;;;;12.60;11.40;;;15.20;99.90;;;;;;5148592;27;20384;-81
2021/05/01 11:20:22;;;;;;;18.23;13.30;;;15.20;99.90;;;;;;5130124;27;20387;-81
2021/05/01 11:22:52;;;;;;;13.13;10.60;;;15.40;99.90;;;;;;5133057;27;20891;-81
2021/05/01 11:25:20;;;;;;;11.10;9.90;;;15.30;99.90;;;;;;5132429;27;20391;-81
2021/05/01 11:27:50;;;;;;;11.90;10.40;;;15.00;99.90;;;;;;5129811;27;20844;-81
2021/05/01 11:30:18;;;;;;;15.43;10.97;;;15.10;99.90;;;;;;5129501;27;20458;-81
2021/05/01 11:32:46;;;;;;;11.77;9.90;;;15.40;99.90;;;;;;5112904;27;20379;-81
2021/05/01 11:35:15;;;;;;;11.70;9.93;;;14.70;99.90;;;;;;5147773;27;20402;-81
2021/05/01 11:37:48;;;;;;;15.07;10.77;;;15.50;99.90;;;;;;5148616;27;20764;-81
2021/05/01 11:40:15;;;;;;;12.67;10.20;;;15.30;99.90;;;;;;5148100;27;20422;-82
2021/05/01 11:42:45;;;;;;;11.63;10.43;;;15.90;99.90;;;;;;5129393;27;20450;-82
2021/05/01 11:45:16;;;;;;;11.07;9.77;;;16.40;99.90;;;;;;5114089;27;20835;-82
2021/05/01 11:47:52;;;;;;;10.93;9.83;;;16.60;99.90;;;;;;5130800;27;20486;-82
2021/05/01 11:50:19;;;;;;;11.60;10.60;;;16.00;99.90;;;;;;5147984;27;20434;-81
2021/05/01 11:53:05;;;;;;;13.57;9.57;;;15.00;99.90;;;;;;5147733;27;20499;-81
2021/05/01 11:55:39;;;;;;;12.17;8.83;;;15.10;99.90;;;;;;5147563;27;20398;-81
2021/05/01 11:58:09;;;;;;;14.37;8.90;;;15.40;99.90;;;;;;5128913;27;20492;-81
2021/05/01 12:00:37;;;;;;;10.57;9.57;;;15.70;99.90;;;;;;5129189;27;20391;-79
2021/05/01 12:03:06;;;;;;;10.07;8.97;;;15.70;99.90;;;;;;5111160;27;20395;-81
2021/05/01 12:05:35;;;;;;;9.57;8.57;;;15.60;99.90;;;;;;5110916;27;20386;-81
2021/05/01 12:08:14;;;;;;;11.67;9.07;;;15.70;99.90;;;;;;5108495;27;20466;-81
2021/05/01 12:10:45;;;;;;;9.20;7.90;;;15.60;99.90;;;;;;5111956;27;20474;-81
2021/05/01 12:13:19;;;;;;;10.03;9.10;;;15.40;99.90;;;;;;5146907;27;20410;-81
2021/05/01 12:15:50;;;;;;;11.40;9.10;;;15.40;99.90;;;;;;5128802;27;20490;-80
2021/05/01 12:18:17;;;;;;;12.13;8.83;;;15.40;99.90;;;;;;5146722;27;20387;-81
2021/05/01 12:20:43;;;;;;;9.10;8.20;;;15.10;99.90;;;;;;5147578;27;20479;-82
2021/05/01 12:23:13;;;;;;;9.70;8.70;;;14.80;99.90;;;;;;5129551;27;20393;-79
2021/05/01 12:25:51;;;;;;;9.90;8.93;;;14.60;99.90;;;;;;5131602;27;20450;-82
2021/05/01 12:28:33;;;;;;;11.30;10.00;;;15.00;99.90;;;;;;5149478;27;20439;-79
2021/05/01 12:30:59;;;;;;;9.87;8.60;;;15.20;99.90;;;;;;5149456;27;20439;-78
2021/05/01 12:33:49;;;;;;;10.87;9.83;;;15.20;99.90;;;;;;5113116;28;20376;-81
2021/05/01 12:36:17;;;;;;;8.87;7.57;;;15.20;99.90;;;;;;5117332;27;20455;-79
2021/05/01 12:38:47;;;;;;;10.97;8.37;;;15.30;99.90;;;;;;5146430;27;20423;-79
2021/05/01 12:41:17;;;;;;;9.83;8.80;;;15.30;99.90;;;;;;5127095;27;20402;-81